Bookmark and Share
Track history (hours):
 

Shin Puropan Maru

Last reported at 2014-Apr-18 17:21 UTC. Time now 2014-Apr-19 19:48 UTC.
Position N 34°50' E 139°11'.

Length 66 m; draft 4.3 m.

Type: Ship (hazmat cat A). MMSI: 431100348.

NotesDate/timePositionNaut miles runAvg speedWind from/ knotsBaromVisibWave heightAir tempDewpointWater temp
2014-Apr-18 17:21N 34°50' E 139°11'1211.6
2014-Apr-18 16:20N 34°58' E 139°22'912.0
2014-Apr-18 15:33N 35°03' E 139°32'1211.6
2014-Apr-18 14:33N 35°09' E 139°43'1110.7
2014-Apr-18 13:33N 35°20' E 139°42'1110.8
2014-Apr-18 12:33N 35°29' E 139°50'1211.6
2014-Apr-18 11:33N 35°33' E 140°03'2 1.7
2014-Apr-18 10:30N 35°33' E 140°05'0 0.0
2014-Apr-18 09:30N 35°33' E 140°05'0 0.0
2014-Apr-18 08:33N 35°33' E 140°05'0 0.0
2014-Apr-18 07:33N 35°33' E 140°05'1 0.9
2014-Apr-18 06:32N 35°33' E 140°05'0 0.0
2014-Apr-18 05:32N 35°33' E 140°05'0 0.0
2014-Apr-18 04:32N 35°33' E 140°05'0 0.0
2014-Apr-18 03:32N 35°33' E 140°05'0 0.0
2014-Apr-18 02:26N 35°33' E 140°05'0 0.0
2014-Apr-18 01:32N 35°33' E 140°05'0 0.0
2014-Apr-18 00:29N 35°33' E 140°05'0 0.0
2014-Apr-17 23:29N 35°33' E 140°05'0 0.0
2014-Apr-17 22:29N 35°33' E 140°05'0 0.0
2014-Apr-17 21:33N 35°33' E 140°05'6 6.2
2014-Apr-17 20:34N 35°32' E 139°57'1110.6
2014-Apr-17 19:34N 35°25' E 139°47'1010.1
2014-Apr-17 18:33N 35°15' E 139°47'1111.0
2014-Apr-17 17:33N 35°04' E 139°45'1110.9
2014-Apr-17 16:33N 34°58' E 139°34'12 0.2
2014-Apr-15 15:29N 34°57' E 139°20'1011.0
2014-Apr-15 14:33N 35°02' E 139°31'11 5.3
2014-Apr-15 12:33N 35°07' E 139°42'1010.1
2014-Apr-15 11:33N 35°17' E 139°45'9 9.2
2014-Apr-15 10:32N 35°26' E 139°47'1010.4
2014-Apr-15 09:34N 35°32' E 139°57'6 2.1
2014-Apr-15 06:32N 35°33' E 140°05'11 3.6
2014-Apr-15 03:33N 35°29' E 139°53'1312.4
2014-Apr-15 02:33N 35°19' E 139°44'1111.4
2014-Apr-15 01:34N 35°08' E 139°46'1211.8
2014-Apr-15 00:33N 34°59' E 139°36'13 0.4
2014-Apr-13 13:23N 34°57' E 139°21'911.0
2014-Apr-13 12:33N 35°02' E 139°30'1111.2
2014-Apr-13 11:33N 35°07' E 139°42'1010.5
2014-Apr-13 10:33N 35°18' E 139°44'10 9.5
2014-Apr-13 09:33N 35°27' E 139°47'1111.3
2014-Apr-13 08:33N 35°33' E 139°59'5 4.5
2014-Apr-13 07:31N 35°33' E 140°05'0 0.0
2014-Apr-13 06:28N 35°33' E 140°05'0 0.0
2014-Apr-13 05:31N 35°33' E 140°05'0 0.0
2014-Apr-13 04:25N 35°33' E 140°05'0 0.2
2014-Apr-13 03:33N 35°33' E 140°05'7 6.8
2014-Apr-13 02:33N 35°30' E 139°57'3 3.1
2014-Apr-13 01:33N 35°28' E 139°54'0 0.0
2014-Apr-13 00:30N 35°28' E 139°54'0 0.0
2014-Apr-12 23:27N 35°28' E 139°54'0 0.0
2014-Apr-12 22:33N 35°29' E 139°54'0 0.0
2014-Apr-12 21:33N 35°29' E 139°54'0 0.0
2014-Apr-12 20:33N 35°29' E 139°54'0 0.0
2014-Apr-12 19:33N 35°29' E 139°54'0 0.0
2014-Apr-12 18:33N 35°28' E 139°54'0 0.0
2014-Apr-12 17:30N 35°28' E 139°54'0 0.0
2014-Apr-12 16:33N 35°28' E 139°54'0 0.0
2014-Apr-12 15:27N 35°28' E 139°54'0 0.0
2014-Apr-12 14:33N 35°28' E 139°54'0 0.0
2014-Apr-12 13:33N 35°28' E 139°54'0 0.0
2014-Apr-12 12:33N 35°28' E 139°54'2 2.2
2014-Apr-12 11:32N 35°28' E 139°51'1111.0
2014-Apr-12 10:33N 35°19' E 139°44'1010.4
2014-Apr-12 09:33N 35°08' E 139°46'1411.9
2014-Apr-12 08:21N 34°58' E 139°34'231 9.7
2014-Apr-11 08:25N 34°07' E 134°60'1012.1
2014-Apr-11 07:33N 34°18' E 134°59'1211.2
2014-Apr-11 06:28N 34°27' E 135°07'1011.4
2014-Apr-11 05:33N 34°34' E 135°17'2 2.0
2014-Apr-11 04:33N 34°35' E 135°19'6 5.5
2014-Apr-11 03:33N 34°34' E 135°26'0 0.0
2014-Apr-11 00:33N 34°34' E 135°26'5 4.9
2014-Apr-10 23:33N 34°34' E 135°20'1110.8
2014-Apr-10 22:33N 34°27' E 135°10'1111.2
2014-Apr-10 21:31N 34°19' E 135°00'1111.1
2014-Apr-10 20:32N 34°08' E 135°00'  

Dump ship's entire track history

sailing weather and tide predictions

Shin Puropan Maru — JG5508 — position and weather